Inicio METAR Ruta Wind Satelite

Informe Meteorológico

Fecha: 2020/07/02 00:25:28 Local
2020.07.02 05:25 UTC


Estado: VENCIDO
Operación:MVFR
Armenia / El Eden, Colombia (SKAR) 04-30N 075-43W 1219M
2020.07.01 1900 UTC
Wind: Calm:0
Visibility: greater than 7 mile(s):0
Sky conditions: mostly cloudy
Weather: showers in the vicinity; Towering cumulus clouds observed
Temperature: 82 F (28 C)
Dew Point: 68 F (20 C)
Relative Humidity: 61%
Pressure (altimeter): 30 in. Hg (1015 hPa)
ob: SKAR 011900Z 00000KT 9999 VCSH FEW017TCU BKN022 28/20 A3000 RMK TCU VCSH/N/NE
cycle: 19

SKAR 011800Z 00000KT 9999 VCSH SCT022 SCT090 25/20 A3002 RMK VCSH/NE
SKAR 011700Z 00000KT 9999 SCT020 BKN090 25/20 A3005 REDZ
SKAR 011600Z 18004KT 9000 -DZ BKN020 BKN090 24/21 A3007
SKAR 011500Z 23003KT 200V280 9999 BKN017 BKN090 24/20 A3008
SKAR 011400Z 00000KT 9999 SCT020 BKN090 23/20 A3008